Time;durP1;ratioP1;P1;durP2;ratioP2;P2;SDS_P1;SDS_P2;PMS_P1;PMS_P2;Temp;Humidity;BMP_temperature;BMP_pressure;BME280_temperature;BME280_humidity;BME280_pressure;Samples;Min_cycle;Max_cycle;Signal;HPM_P1;HPM_P2
2022/01/07 00:03:02;;;;;;;5.93;5.30;;;22.50;71.50;;;;;;6231835;28;89539;-67
2022/01/07 00:06:05;;;;;;;5.82;5.22;;;22.50;71.50;;;;;;6215512;28;87814;-67
2022/01/07 00:09:07;;;;;;;6.03;5.43;;;22.40;71.50;;;;;;6221767;28;89055;-68
2022/01/07 00:12:09;;;;;;;6.55;5.90;;;22.40;71.60;;;;;;6218159;28;88333;-68
2022/01/07 00:15:12;;;;;;;6.68;6.07;;;22.40;71.60;;;;;;6221734;28;88998;-67
2022/01/07 00:18:16;;;;;;;6.57;5.88;;;22.40;71.60;;;;;;6221130;28;89173;-68
2022/01/07 00:21:18;;;;;;;6.95;6.25;;;22.40;71.60;;;;;;6199406;28;90475;-67
2022/01/07 00:24:20;;;;;;;6.55;5.95;;;22.40;71.60;;;;;;6230162;28;89102;-67
2022/01/07 00:27:22;;;;;;;7.55;6.85;;;22.40;71.70;;;;;;6208517;28;89272;-67
2022/01/07 00:30:25;;;;;;;7.10;6.40;;;22.30;71.60;;;;;;6216307;28;89290;-67
2022/01/07 00:33:29;;;;;;;7.15;6.45;;;22.30;71.60;;;;;;6217437;28;89091;-67
2022/01/07 00:36:31;;;;;;;8.15;7.35;;;22.40;71.60;;;;;;6210306;28;89206;-68
2022/01/07 00:39:33;;;;;;;7.55;6.85;;;22.30;71.60;;;;;;6190635;28;89071;-67
2022/01/07 00:42:35;;;;;;;7.43;6.72;;;22.30;71.60;;;;;;6229889;28;88262;-67
2022/01/07 00:45:37;;;;;;;8.07;7.28;;;22.30;71.60;;;;;;6208637;28;89178;-67
2022/01/07 00:48:41;;;;;;;8.10;7.30;;;22.30;71.60;;;;;;6220405;28;89034;-67
2022/01/07 00:51:43;;;;;;;8.20;7.40;;;22.30;71.70;;;;;;6204029;28;90331;-67
2022/01/07 00:54:45;;;;;;;8.23;7.43;;;22.30;71.60;;;;;;6230900;28;89067;-67
2022/01/07 00:57:47;;;;;;;8.63;7.72;;;22.30;71.60;;;;;;6222090;28;88052;-66
2022/01/07 01:00:49;;;;;;;7.82;7.03;;;22.20;71.60;;;;;;6231133;28;88988;-67
2022/01/07 01:03:53;;;;;;;8.32;7.53;;;22.30;71.60;;;;;;6206284;28;89223;-67
2022/01/07 01:06:55;;;;;;;8.73;7.82;;;22.20;71.60;;;;;;6209484;28;89110;-68
2022/01/07 01:09:57;;;;;;;8.90;8.00;;;22.20;71.60;;;;;;6218390;28;88969;-67
2022/01/07 01:12:59;;;;;;;8.73;7.82;;;22.20;71.60;;;;;;6222180;28;88370;-67
2022/01/07 01:16:01;;;;;;;8.32;7.53;;;22.20;71.60;;;;;;6219754;28;89049;-67
2022/01/07 01:19:06;;;;;;;8.82;7.93;;;22.20;71.60;;;;;;6219948;28;89073;-66
2022/01/07 01:22:09;;;;;;;8.77;7.88;;;22.10;71.60;;;;;;6214379;28;90021;-67
2022/01/07 01:25:12;;;;;;;8.50;7.60;;;22.20;71.60;;;;;;6215234;28;89045;-68
2022/01/07 01:31:36;;;;;;;9.25;8.25;;;22.20;71.70;;;;;;6210765;28;87370;-68
2022/01/07 01:34:39;;;;;;;8.38;7.57;;;22.10;71.60;;;;;;6216432;28;89178;-67
2022/01/07 01:37:41;;;;;;;8.32;7.53;;;22.10;71.60;;;;;;6218410;28;89451;-67
2022/01/07 01:40:43;;;;;;;8.82;7.93;;;22.20;71.70;;;;;;6186205;28;88340;-68
2022/01/07 01:43:48;;;;;;;8.25;7.45;;;22.10;71.60;;;;;;6212997;28;88168;-67
2022/01/07 01:46:50;;;;;;;8.52;7.72;;;22.10;71.70;;;;;;6217236;28;89650;-68
2022/01/07 01:49:54;;;;;;;8.82;7.93;;;22.10;71.60;;;;;;6190917;28;89054;-68
2022/01/07 01:52:57;;;;;;;8.18;7.38;;;22.10;71.60;;;;;;6189568;28;90016;-68
2022/01/07 01:56:00;;;;;;;8.60;7.80;;;22.10;71.70;;;;;;6217644;28;88318;-67
2022/01/07 01:59:02;;;;;;;8.55;7.75;;;22.10;71.60;;;;;;6186419;28;88938;-68
2022/01/07 02:02:04;;;;;;;8.20;7.40;;;22.10;71.70;;;;;;6199487;28;89073;-67
2022/01/07 02:05:09;;;;;;;8.60;7.80;;;22.10;71.60;;;;;;6232531;28;89061;-67
2022/01/07 02:08:11;;;;;;;8.00;7.28;;;22.10;71.60;;;;;;6221913;28;88958;-67
2022/01/07 02:11:13;;;;;;;8.63;7.80;;;22.10;71.70;;;;;;6225267;28;89072;-67
2022/01/07 02:14:15;;;;;;;7.95;7.15;;;22.00;71.60;;;;;;6213266;28;88271;-67
2022/01/07 02:17:18;;;;;;;8.35;7.55;;;22.10;71.60;;;;;;6200305;28;87874;-67
2022/01/07 02:20:25;;;;;;;8.43;7.57;;;22.00;71.60;;;;;;6218980;28;89144;-68
2022/01/07 02:23:27;;;;;;;7.57;6.78;;;22.10;71.60;;;;;;6230674;28;90186;-67
2022/01/07 02:26:32;;;;;;;8.20;7.40;;;22.00;71.60;;;;;;6209952;28;89188;-67
2022/01/07 02:29:36;;;;;;;8.00;7.20;;;22.00;71.60;;;;;;6222071;28;89125;-67
2022/01/07 02:32:38;;;;;;;7.65;6.85;;;22.00;71.50;;;;;;6210460;28;89223;-67
2022/01/07 02:35:45;;;;;;;7.32;6.60;;;22.00;71.60;;;;;;6191208;28;89110;-68
2022/01/07 02:38:47;;;;;;;7.28;6.57;;;22.00;71.50;;;;;;6193405;28;89096;-68
2022/01/07 02:41:50;;;;;;;7.30;6.60;;;22.00;71.60;;;;;;6203929;28;89439;-68
2022/01/07 02:44:52;;;;;;;7.57;6.88;;;22.00;71.50;;;;;;6202218;28;87449;-67
2022/01/07 02:47:55;;;;;;;7.15;6.55;;;22.00;71.60;;;;;;6204803;28;89017;-66
2022/01/07 02:50:58;;;;;;;7.07;6.47;;;22.00;71.60;;;;;;6211655;28;88972;-67
2022/01/07 02:54:00;;;;;;;6.90;6.30;;;22.00;71.60;;;;;;6227940;28;90065;-67
2022/01/07 02:57:02;;;;;;;7.35;6.50;;;21.90;72.50;;;;;;6207654;28;87811;-67
2022/01/07 03:00:09;;;;;;;7.28;6.55;;;21.90;71.60;;;;;;6230853;28;90296;-67
2022/01/07 03:03:11;;;;;;;6.63;6.03;;;21.90;71.60;;;;;;6212917;28;88812;-67
2022/01/07 03:06:14;;;;;;;6.38;5.78;;;21.90;71.60;;;;;;6227570;28;89397;-68
2022/01/07 03:09:17;;;;;;;6.72;6.13;;;21.90;71.60;;;;;;6223701;28;89084;-68
2022/01/07 03:12:19;;;;;;;6.53;5.93;;;21.90;71.60;;;;;;6184935;28;89114;-67
2022/01/07 03:15:21;;;;;;;6.85;6.20;;;21.90;71.60;;;;;;6187771;28;88404;-67
2022/01/07 03:18:23;;;;;;;6.72;6.13;;;21.90;71.60;;;;;;6195598;28;89044;-67
2022/01/07 03:21:27;;;;;;;6.03;5.53;;;21.90;71.50;;;;;;6219111;28;89072;-67
2022/01/07 03:24:29;;;;;;;6.47;5.88;;;21.90;71.50;;;;;;6208796;28;90046;-67
2022/01/07 03:27:32;;;;;;;6.55;5.95;;;21.90;71.50;;;;;;6192702;28;88282;-67
2022/01/07 03:30:34;;;;;;;6.18;5.57;;;21.90;71.50;;;;;;6216556;28;89030;-67
2022/01/07 03:33:36;;;;;;;6.65;6.05;;;21.90;71.50;;;;;;6191824;28;88337;-68
2022/01/07 03:36:40;;;;;;;6.40;5.80;;;21.90;71.50;;;;;;6203554;28;89122;-67
2022/01/07 03:39:42;;;;;;;6.60;6.00;;;21.90;71.50;;;;;;6225007;28;89103;-67
2022/01/07 03:42:45;;;;;;;6.20;5.68;;;21.80;71.50;;;;;;6233181;28;87802;-67
2022/01/07 03:45:47;;;;;;;6.28;5.68;;;21.90;71.60;;;;;;6232837;28;87454;-67
2022/01/07 03:48:49;;;;;;;6.30;5.47;;;21.80;71.50;;;;;;6207908;28;89401;-68
2022/01/07 03:51:52;;;;;;;6.05;5.55;;;21.80;71.50;;;;;;6208475;28;87808;-67
2022/01/07 03:54:54;;;;;;;6.22;5.63;;;21.90;71.60;;;;;;6210154;28;89925;-67
2022/01/07 03:57:57;;;;;;;5.60;5.10;;;21.80;71.50;;;;;;6197507;28;89432;-68
2022/01/07 04:00:59;;;;;;;5.68;5.18;;;21.80;71.60;;;;;;6212211;28;89055;-68
2022/01/07 04:04:01;;;;;;;5.85;5.35;;;21.80;71.60;;;;;;6206847;28;89111;-67
2022/01/07 04:07:05;;;;;;;5.43;4.93;;;21.80;71.50;;;;;;6196707;28;89082;-68
2022/01/07 04:10:08;;;;;;;6.15;5.55;;;21.80;71.60;;;;;;6209523;28;89063;-67
2022/01/07 04:13:10;;;;;;;5.85;5.32;;;21.80;71.60;;;;;;6220869;28;89025;-67
2022/01/07 04:16:13;;;;;;;5.35;4.85;;;21.80;71.60;;;;;;6228735;28;88638;-67
2022/01/07 04:19:15;;;;;;;5.25;4.75;;;21.80;71.60;;;;;;6197829;28;89220;-67
2022/01/07 04:22:19;;;;;;;5.55;5.05;;;21.70;71.50;;;;;;6213535;28;88314;-67
2022/01/07 04:25:22;;;;;;;5.47;4.97;;;21.80;71.50;;;;;;6214889;28;90072;-67
2022/01/07 04:28:24;;;;;;;5.47;4.97;;;21.80;71.50;;;;;;6198559;28;89105;-67
2022/01/07 04:31:26;;;;;;;5.65;5.10;;;21.70;71.40;;;;;;6204411;28;87938;-68
2022/01/07 04:34:28;;;;;;;5.10;4.60;;;21.80;71.50;;;;;;6230740;28;89037;-67
2022/01/07 04:37:32;;;;;;;5.22;4.72;;;21.80;71.40;;;;;;6189976;28;89094;-67
2022/01/07 04:40:34;;;;;;;5.22;4.72;;;21.80;71.40;;;;;;6193875;28;89026;-67
2022/01/07 04:43:36;;;;;;;5.15;4.65;;;21.80;71.40;;;;;;6206150;28;89030;-67
2022/01/07 04:46:38;;;;;;;5.00;4.60;;;21.80;71.30;;;;;;6214753;28;88337;-67
2022/01/07 04:49:40;;;;;;;5.30;4.80;;;21.80;71.30;;;;;;6225046;28;89101;-67
2022/01/07 04:52:45;;;;;;;5.28;4.78;;;21.80;71.30;;;;;;6230462;28;89074;-68
2022/01/07 04:55:47;;;;;;;4.93;4.43;;;21.80;71.20;;;;;;6213732;28;89993;-68
2022/01/07 04:58:49;;;;;;;4.60;4.20;;;21.90;71.20;;;;;;6196056;28;89221;-68
2022/01/07 05:01:51;;;;;;;4.80;4.40;;;21.90;71.10;;;;;;6202582;28;89033;-68
2022/01/07 05:04:53;;;;;;;4.80;4.40;;;21.90;71.00;;;;;;6233377;28;89029;-67
2022/01/07 05:07:56;;;;;;;4.97;4.55;;;21.90;71.00;;;;;;6219085;28;88968;-67
2022/01/07 05:10:59;;;;;;;4.60;4.20;;;21.90;71.00;;;;;;6206194;28;89347;-67
2022/01/07 05:14:01;;;;;;;4.50;4.10;;;22.00;70.90;;;;;;6217146;28;88960;-68
2022/01/07 05:17:03;;;;;;;4.38;3.97;;;22.00;70.80;;;;;;6220880;28;88417;-68
2022/01/07 05:20:07;;;;;;;4.20;3.90;;;22.00;70.80;;;;;;6218710;28;88907;-67
2022/01/07 05:23:10;;;;;;;3.88;3.53;;;22.00;70.80;;;;;;6203628;28;89001;-68
2022/01/07 05:26:12;;;;;;;4.40;4.00;;;22.10;70.80;;;;;;6223588;28;90156;-68
2022/01/07 05:29:14;;;;;;;3.95;3.65;;;22.10;70.80;;;;;;6210684;28;89360;-67
2022/01/07 05:32:17;;;;;;;4.30;3.90;;;22.10;70.60;;;;;;6223274;28;89090;-68
2022/01/07 05:35:19;;;;;;;3.92;3.63;;;22.10;70.60;;;;;;6181741;28;88691;-67
2022/01/07 05:38:22;;;;;;;4.10;3.70;;;22.10;70.50;;;;;;6180890;28;89054;-67
2022/01/07 05:41:24;;;;;;;4.25;3.85;;;22.20;70.50;;;;;;6209656;28;89425;-67
2022/01/07 05:44:26;;;;;;;3.70;3.40;;;22.20;70.40;;;;;;6203403;28;88895;-67
2022/01/07 05:47:29;;;;;;;4.03;3.63;;;22.20;70.40;;;;;;6221440;28;88908;-68
2022/01/07 05:50:31;;;;;;;3.97;3.60;;;22.20;70.30;;;;;;6206060;28;89014;-67
2022/01/07 05:53:34;;;;;;;4.20;3.80;;;22.30;70.40;;;;;;6204084;28;89082;-67
2022/01/07 05:59:59;;;;;;;3.42;3.13;;;22.30;70.30;;;;;;6214220;28;87297;-67
2022/01/07 06:03:01;;;;;;;3.90;3.60;;;22.30;70.20;;;;;;6229544;28;88897;-67
2022/01/07 06:06:03;;;;;;;4.32;3.92;;;22.30;70.10;;;;;;6225302;28;89403;-68
2022/01/07 06:09:06;;;;;;;3.60;3.30;;;22.30;70.10;;;;;;6223581;28;89046;-68
2022/01/07 06:12:09;;;;;;;3.70;3.40;;;22.40;70.10;;;;;;6230880;28;89109;-67
2022/01/07 06:15:11;;;;;;;3.33;3.03;;;22.40;70.10;;;;;;6201594;28;89370;-68
2022/01/07 06:18:13;;;;;;;3.70;3.40;;;22.40;70.00;;;;;;6181665;28;88290;-67
2022/01/07 06:21:15;;;;;;;3.40;3.10;;;22.40;70.00;;;;;;6204036;28;87971;-67
2022/01/07 06:24:19;;;;;;;3.65;3.35;;;22.40;70.00;;;;;;6205685;28;89023;-68
2022/01/07 06:27:21;;;;;;;3.60;3.30;;;22.40;70.00;;;;;;6190751;28;90586;-67
2022/01/07 06:30:23;;;;;;;3.65;3.35;;;22.40;70.00;;;;;;6207729;28;89157;-68
2022/01/07 06:33:25;;;;;;;3.55;3.25;;;22.40;69.80;;;;;;6202672;28;89277;-67
2022/01/07 06:36:27;;;;;;;3.22;3.00;;;22.50;69.90;;;;;;6196147;28;88962;-67
2022/01/07 06:39:32;;;;;;;3.40;3.10;;;22.50;69.80;;;;;;6218139;28;89415;-68
2022/01/07 06:42:34;;;;;;;3.42;3.15;;;22.50;69.80;;;;;;6207751;28;89165;-68
2022/01/07 06:45:36;;;;;;;3.67;3.35;;;22.50;69.90;;;;;;6183707;28;89041;-68
2022/01/07 06:48:39;;;;;;;3.53;3.22;;;22.50;69.80;;;;;;6186102;28;88675;-68
2022/01/07 06:51:41;;;;;;;3.65;3.35;;;22.50;69.80;;;;;;6232638;28;89063;-67
2022/01/07 06:54:44;;;;;;;3.20;2.90;;;22.50;69.80;;;;;;6200405;28;89406;-68
2022/01/07 06:57:46;;;;;;;3.50;3.20;;;22.50;69.80;;;;;;6208015;28;90074;-68
2022/01/07 07:00:48;;;;;;;3.40;3.10;;;22.50;69.80;;;;;;6198548;28;89177;-67
2022/01/07 07:03:50;;;;;;;3.20;2.88;;;22.50;69.80;;;;;;6209975;28;89135;-67
2022/01/07 07:06:52;;;;;;;3.35;3.05;;;22.50;69.70;;;;;;6197000;28;89219;-68
2022/01/07 07:09:56;;;;;;;3.22;2.92;;;22.50;69.70;;;;;;6212927;28;89057;-68
2022/01/07 07:12:58;;;;;;;2.83;2.63;;;22.60;69.70;;;;;;6209157;28;87961;-68
2022/01/07 07:16:00;;;;;;;3.00;2.80;;;22.60;69.70;;;;;;6200668;28;89041;-67
2022/01/07 07:19:02;;;;;;;3.00;2.80;;;22.60;69.60;;;;;;6202442;28;88250;-67
2022/01/07 07:22:04;;;;;;;3.55;3.25;;;22.60;69.60;;;;;;6221554;28;89158;-67
2022/01/07 07:25:09;;;;;;;3.30;3.00;;;22.60;69.60;;;;;;6221580;28;89056;-68
2022/01/07 07:28:11;;;;;;;3.35;2.80;;;22.60;69.60;;;;;;6222227;28;89761;-67
2022/01/07 07:31:16;;;;;;;3.20;2.90;;;22.60;69.60;;;;;;6221695;28;89195;-67
2022/01/07 07:34:43;;;;;;;3.15;2.85;;;22.60;69.50;;;;;;6222360;28;88760;-67
2022/01/07 07:37:44;;;;;;;3.00;2.70;;;22.60;69.50;;;;;;6216637;28;88566;-67
2022/01/07 07:40:47;;;;;;;2.83;2.63;;;22.60;69.40;;;;;;6181835;28;89070;-67
2022/01/07 07:43:49;;;;;;;2.80;2.60;;;22.70;69.50;;;;;;6220613;28;89440;-68
2022/01/07 07:46:52;;;;;;;2.78;2.58;;;22.70;69.50;;;;;;6232184;28;87058;-67
2022/01/07 07:49:54;;;;;;;2.63;2.42;;;22.60;69.50;;;;;;6219312;28;88219;-68
2022/01/07 07:52:56;;;;;;;2.80;2.60;;;22.70;69.50;;;;;;6199057;28;90667;-67
2022/01/07 07:55:59;;;;;;;3.00;2.80;;;22.60;69.40;;;;;;6221339;28;89498;-67
2022/01/07 07:59:02;;;;;;;3.05;2.35;;;22.70;69.50;;;;;;6209074;28;90212;-68
2022/01/07 08:02:05;;;;;;;2.60;2.40;;;22.70;69.50;;;;;;6182772;28;88977;-68
2022/01/07 08:05:08;;;;;;;2.80;2.60;;;22.70;69.50;;;;;;6231892;28;88913;-68
2022/01/07 08:08:10;;;;;;;2.90;2.70;;;22.70;69.50;;;;;;6205052;28;89241;-69
2022/01/07 08:11:14;;;;;;;2.97;2.67;;;22.70;69.50;;;;;;6191051;28;89156;-68
2022/01/07 08:17:36;;;;;;;2.78;2.58;;;22.70;69.50;;;;;;6204300;28;87388;-67
2022/01/07 08:20:40;;;;;;;2.60;2.40;;;22.70;69.50;;;;;;6206955;28;88406;-68
2022/01/07 08:23:44;;;;;;;2.60;2.40;;;22.70;69.50;;;;;;6215419;28;89109;-68
2022/01/07 08:26:47;;;;;;;2.60;2.40;;;22.70;69.50;;;;;;6215899;28;89349;-67
2022/01/07 08:29:51;;;;;;;2.88;2.67;;;22.80;69.60;;;;;;6210192;28;89923;-67
2022/01/07 08:36:12;;;;;;;2.58;2.38;;;22.80;69.50;;;;;;6210083;28;86955;-67
2022/01/07 08:39:14;;;;;;;2.80;2.60;;;22.70;69.40;;;;;;6231886;28;89031;-68
2022/01/07 08:42:18;;;;;;;2.50;2.25;;;22.70;69.40;;;;;;6232084;28;89056;-67
2022/01/07 08:45:20;;;;;;;2.70;2.38;;;22.80;69.40;;;;;;6206366;28;90484;-67
2022/01/07 08:48:22;;;;;;;3.22;2.42;;;22.80;69.40;;;;;;6197235;28;89173;-67
2022/01/07 08:51:25;;;;;;;2.40;2.20;;;22.80;69.40;;;;;;6183272;28;88769;-68
2022/01/07 08:54:27;;;;;;;2.50;2.30;;;22.80;69.40;;;;;;6208794;28;89183;-67
2022/01/07 08:57:31;;;;;;;2.50;2.30;;;22.80;69.40;;;;;;6214487;28;88917;-67
2022/01/07 09:00:34;;;;;;;2.50;2.30;;;22.80;69.40;;;;;;6183469;28;88871;-68
2022/01/07 09:03:36;;;;;;;2.65;2.45;;;22.90;69.50;;;;;;6219175;28;89059;-67
2022/01/07 09:06:37;;;;;;;2.20;2.00;;;22.80;69.40;;;;;;6184035;28;89120;-68
2022/01/07 09:09:40;;;;;;;2.30;2.10;;;22.80;69.40;;;;;;6224399;28;89711;-68
2022/01/07 09:12:44;;;;;;;2.30;2.10;;;22.80;69.40;;;;;;6230169;28;89041;-68
2022/01/07 09:15:47;;;;;;;2.15;1.95;;;22.80;69.40;;;;;;6193342;28;89243;-68
2022/01/07 09:18:49;;;;;;;2.60;2.30;;;22.90;69.40;;;;;;6212914;28;89092;-68
2022/01/07 09:21:51;;;;;;;3.03;2.22;;;22.90;69.30;;;;;;6197733;28;88378;-67
2022/01/07 09:24:53;;;;;;;2.60;2.20;;;22.90;69.30;;;;;;6217361;28;88105;-68
2022/01/07 09:27:56;;;;;;;2.47;2.28;;;22.90;69.20;;;;;;6204298;28;89200;-67
2022/01/07 09:30:58;;;;;;;2.28;2.08;;;22.90;69.30;;;;;;6194466;28;90290;-67
2022/01/07 09:34:00;;;;;;;2.25;2.05;;;22.90;69.20;;;;;;6191447;28;89057;-68
2022/01/07 09:37:03;;;;;;;2.72;2.00;;;22.90;69.20;;;;;;6195516;28;89126;-68
2022/01/07 09:40:06;;;;;;;2.10;1.98;;;22.90;69.30;;;;;;6228113;28;89119;-67
2022/01/07 09:43:10;;;;;;;2.30;2.10;;;22.90;69.20;;;;;;6197128;28;89159;-67
2022/01/07 09:46:14;;;;;;;2.53;2.20;;;22.90;69.30;;;;;;6199414;28;89559;-68
2022/01/07 09:49:16;;;;;;;2.40;2.20;;;22.90;69.30;;;;;;6221580;28;89175;-67
2022/01/07 09:52:18;;;;;;;2.38;2.17;;;22.90;69.30;;;;;;6184524;28;88384;-67
2022/01/07 09:55:20;;;;;;;2.22;2.05;;;22.90;69.30;;;;;;6204592;28;88767;-67
2022/01/07 09:58:23;;;;;;;2.45;2.15;;;23.00;69.30;;;;;;6200679;28;89223;-67
2022/01/07 10:01:26;;;;;;;2.20;2.00;;;22.90;69.20;;;;;;6192631;28;90034;-67
2022/01/07 10:04:31;;;;;;;2.60;2.25;;;22.90;69.20;;;;;;6220839;28;88067;-68
2022/01/07 10:07:34;;;;;;;2.28;1.88;;;23.00;69.20;;;;;;6207590;28;89086;-68
2022/01/07 10:10:36;;;;;;;2.30;2.10;;;23.00;69.20;;;;;;6216981;28;89111;-67
2022/01/07 10:13:39;;;;;;;2.20;2.00;;;23.00;69.10;;;;;;6213059;28;89165;-68
2022/01/07 10:16:49;;;;;;;2.40;2.20;;;23.00;69.10;;;;;;6234685;28;89047;-67
2022/01/07 10:19:53;;;;;;;2.78;2.00;;;23.00;69.10;;;;;;6220302;28;89525;-68
2022/01/07 10:22:57;;;;;;;2.38;2.15;;;23.00;69.10;;;;;;6196424;28;88292;-67
2022/01/07 10:25:59;;;;;;;2.00;1.85;;;23.00;69.10;;;;;;6212087;28;87940;-68
2022/01/07 10:29:03;;;;;;;2.17;1.98;;;23.00;69.10;;;;;;6199115;28;89337;-67
2022/01/07 10:32:21;;;;;;;2.20;2.00;;;23.00;69.10;;;;;;6225479;28;90116;-67
2022/01/07 10:35:24;;;;;;;2.22;2.03;;;23.00;69.10;;;;;;6219123;28;88082;-67
2022/01/07 10:38:28;;;;;;;2.10;1.90;;;23.00;69.10;;;;;;6190344;28;89134;-67
2022/01/07 10:41:30;;;;;;;2.03;1.92;;;23.00;69.10;;;;;;6210974;28;89089;-68
2022/01/07 10:44:58;;;;;;;2.20;1.90;;;23.10;69.10;;;;;;6223953;28;89374;-67
2022/01/07 10:48:00;;;;;;;1.95;1.80;;;23.10;69.10;;;;;;6215383;28;89014;-67
2022/01/07 10:51:07;;;;;;;2.20;2.00;;;23.00;69.10;;;;;;6208319;28;89115;-67
2022/01/07 10:54:11;;;;;;;1.88;1.77;;;23.00;69.10;;;;;;6196656;28;88384;-68
2022/01/07 10:57:13;;;;;;;2.20;2.00;;;23.00;69.10;;;;;;6202054;28;89053;-68
2022/01/07 11:00:18;;;;;;;1.77;1.67;;;23.10;69.10;;;;;;6199929;28;87970;-68
2022/01/07 11:03:20;;;;;;;2.08;1.77;;;23.10;69.00;;;;;;6229044;28;90411;-67
2022/01/07 11:06:23;;;;;;;2.22;2.03;;;23.10;69.00;;;;;;6219896;28;89095;-68
2022/01/07 11:09:26;;;;;;;2.15;1.80;;;23.10;69.00;;;;;;6214835;28;89080;-67
2022/01/07 11:12:30;;;;;;;2.28;1.90;;;23.10;68.90;;;;;;6203180;28;89019;-68
2022/01/07 11:15:34;;;;;;;2.08;1.88;;;23.10;68.90;;;;;;6187190;28;88944;-67
2022/01/07 11:21:59;;;;;;;2.00;1.80;;;23.10;69.00;;;;;;6191897;28;87191;-67
2022/01/07 11:25:10;;;;;;;1.85;1.70;;;23.10;68.90;;;;;;6185618;28;88402;-67
2022/01/07 11:28:18;;;;;;;2.05;1.85;;;23.10;68.90;;;;;;6211467;28;87933;-67
2022/01/07 11:31:21;;;;;;;1.80;1.70;;;23.10;68.90;;;;;;6211775;28;89124;-68
2022/01/07 11:34:27;;;;;;;1.80;1.70;;;23.10;69.00;;;;;;6222247;28;90369;-67
2022/01/07 11:37:36;;;;;;;2.22;1.90;;;23.10;68.90;;;;;;6203661;28;89222;-67
2022/01/07 11:40:47;;;;;;;1.77;1.67;;;23.10;69.00;;;;;;6219388;28;90126;-67
2022/01/07 11:43:49;;;;;;;2.00;1.80;;;23.10;69.00;;;;;;6196595;28;89422;-67
2022/01/07 11:46:53;;;;;;;2.08;1.90;;;23.10;68.90;;;;;;6195830;28;89288;-67
2022/01/07 11:50:04;;;;;;;2.13;1.92;;;23.10;68.90;;;;;;6205731;28;89169;-67
2022/01/07 11:53:06;;;;;;;2.00;1.80;;;23.10;68.90;;;;;;6195515;28;89058;-67
2022/01/07 11:56:10;;;;;;;2.00;1.80;;;23.10;68.90;;;;;;6211471;28;88326;-67
2022/01/07 11:59:16;;;;;;;1.80;1.63;;;23.10;68.90;;;;;;6223157;28;88780;-66
2022/01/07 12:02:19;;;;;;;2.05;1.80;;;23.10;68.80;;;;;;6219116;28;88709;-67
2022/01/07 12:05:31;;;;;;;1.77;1.67;;;23.20;68.90;;;;;;6182315;28;88937;-67
2022/01/07 12:08:40;;;;;;;1.70;1.50;;;23.20;68.90;;;;;;6205929;28;89138;-67
2022/01/07 12:11:45;;;;;;;1.98;1.60;;;23.20;69.00;;;;;;6194538;28;89046;-66
2022/01/07 12:14:53;;;;;;;1.60;1.50;;;23.20;68.90;;;;;;6231964;28;89014;-68
2022/01/07 12:18:08;;;;;;;2.03;1.70;;;23.20;68.90;;;;;;6223661;28;89682;-67
2022/01/07 12:21:11;;;;;;;1.75;1.65;;;23.20;68.90;;;;;;6221685;28;89062;-66
2022/01/07 12:24:16;;;;;;;1.95;1.70;;;23.20;68.90;;;;;;6218044;28;89152;-67
2022/01/07 12:27:22;;;;;;;1.63;1.52;;;23.20;68.90;;;;;;6206214;28;88301;-67
2022/01/07 12:30:24;;;;;;;1.90;1.70;;;23.20;68.90;;;;;;6233236;28;89079;-67
2022/01/07 12:33:27;;;;;;;1.50;1.40;;;23.20;68.90;;;;;;6206909;28;88997;-67
2022/01/07 12:36:32;;;;;;;1.75;1.65;;;23.20;68.90;;;;;;6187891;28;90127;-67
2022/01/07 12:39:36;;;;;;;1.65;1.55;;;23.20;68.90;;;;;;6208911;28;89091;-67
2022/01/07 12:42:43;;;;;;;1.75;1.65;;;23.20;68.90;;;;;;6211660;28;89086;-67
2022/01/07 12:45:55;;;;;;;1.85;1.70;;;23.20;68.90;;;;;;6208211;28;89371;-67
2022/01/07 12:48:59;;;;;;;1.75;1.60;;;23.20;68.80;;;;;;6192529;28;89348;-66
2022/01/07 12:52:02;;;;;;;1.73;1.55;;;23.20;68.80;;;;;;6194542;28;89136;-67
2022/01/07 12:55:07;;;;;;;1.80;1.70;;;23.20;68.80;;;;;;6195116;28;90313;-67
2022/01/07 12:58:09;;;;;;;1.67;1.58;;;23.30;68.80;;;;;;6206367;28;88323;-67
2022/01/07 13:01:26;;;;;;;1.80;1.70;;;23.30;68.80;;;;;;6194074;28;88933;-66
2022/01/07 13:04:30;;;;;;;1.73;1.50;;;23.30;68.80;;;;;;6197642;28;89136;-67
2022/01/07 13:07:32;;;;;;;1.60;1.40;;;23.30;68.80;;;;;;6218520;28;89938;-67
2022/01/07 13:10:36;;;;;;;1.73;1.50;;;23.20;68.70;;;;;;6230096;28;89387;-67
2022/01/07 13:13:38;;;;;;;1.63;1.52;;;23.30;68.80;;;;;;6206281;28;89059;-67
2022/01/07 13:16:40;;;;;;;1.63;1.52;;;23.20;68.70;;;;;;6195158;28;87980;-66
2022/01/07 13:19:46;;;;;;;1.60;1.50;;;23.30;68.70;;;;;;6191237;28;88298;-67
2022/01/07 13:22:48;;;;;;;1.48;1.38;;;23.20;68.60;;;;;;6219433;28;88086;-67
2022/01/07 13:25:50;;;;;;;1.65;1.50;;;23.20;68.70;;;;;;6215224;28;89205;-67
2022/01/07 13:32:21;;;;;;;1.67;1.58;;;23.30;68.70;;;;;;6182539;28;87110;-67
2022/01/07 13:35:25;;;;;;;1.70;1.60;;;23.20;68.60;;;;;;6181824;28;89115;-67
2022/01/07 13:38:27;;;;;;;1.55;1.40;;;23.30;68.70;;;;;;6203065;28;90034;-67
2022/01/07 13:41:30;;;;;;;1.55;1.42;;;23.30;68.70;;;;;;6204131;28;88869;-67
2022/01/07 13:44:33;;;;;;;1.70;1.40;;;23.30;68.60;;;;;;6218147;28;89042;-67
2022/01/07 13:47:38;;;;;;;1.60;1.50;;;23.30;68.60;;;;;;6208580;28;87973;-67
2022/01/07 13:50:43;;;;;;;1.60;1.50;;;23.30;68.60;;;;;;6185435;28;88018;-67
2022/01/07 13:54:10;;;;;;;1.63;1.50;;;23.30;68.60;;;;;;6202328;28;89270;-66
2022/01/07 13:57:13;;;;;;;1.50;1.40;;;23.30;68.60;;;;;;6222740;28;88617;-67
2022/01/07 14:00:16;;;;;;;1.70;1.60;;;23.30;68.60;;;;;;6221491;28;88669;-68
2022/01/07 14:03:18;;;;;;;1.70;1.60;;;23.30;68.60;;;;;;6200649;28;89059;-67
2022/01/07 14:06:24;;;;;;;1.58;1.48;;;23.30;68.60;;;;;;6196017;28;89142;-67
2022/01/07 14:09:26;;;;;;;1.50;1.40;;;23.30;68.60;;;;;;6194791;28;90563;-67
2022/01/07 14:12:28;;;;;;;1.80;1.70;;;23.30;68.60;;;;;;6197125;28;89135;-67
2022/01/07 14:15:32;;;;;;;1.63;1.52;;;23.30;68.60;;;;;;6223332;28;89046;-67
2022/01/07 14:18:36;;;;;;;1.88;1.42;;;23.30;68.60;;;;;;6209923;28;89028;-67
2022/01/07 14:21:39;;;;;;;1.50;1.40;;;23.30;68.50;;;;;;6198187;28;88980;-67
2022/01/07 14:24:42;;;;;;;1.40;1.30;;;23.30;68.50;;;;;;6219594;28;89040;-68
2022/01/07 14:27:45;;;;;;;1.67;1.58;;;23.30;68.50;;;;;;6184802;28;89161;-67
2022/01/07 14:30:47;;;;;;;1.73;1.50;;;23.30;68.50;;;;;;6199267;28;88295;-68
2022/01/07 14:33:49;;;;;;;1.65;1.50;;;23.30;68.60;;;;;;6185348;28;89122;-68
2022/01/07 14:36:53;;;;;;;1.70;1.60;;;23.30;68.50;;;;;;6184517;28;89097;-67
2022/01/07 14:39:56;;;;;;;1.90;1.70;;;23.30;68.40;;;;;;6191386;28;90173;-67
2022/01/07 14:42:59;;;;;;;1.70;1.60;;;23.30;68.40;;;;;;6197557;28;89120;-66
2022/01/07 14:46:01;;;;;;;1.83;1.50;;;23.30;68.40;;;;;;6221067;28;87980;-67
2022/01/07 14:49:03;;;;;;;2.42;1.80;;;23.30;68.40;;;;;;6211589;28;89002;-67
2022/01/07 14:52:07;;;;;;;1.67;1.55;;;23.30;68.40;;;;;;6217601;28;89051;-67
2022/01/07 14:55:10;;;;;;;1.70;1.60;;;23.30;68.40;;;;;;6196267;28;89048;-67
2022/01/07 14:58:13;;;;;;;1.70;1.60;;;23.30;68.30;;;;;;6197783;28;89096;-67
2022/01/07 15:01:16;;;;;;;1.58;1.48;;;23.30;68.40;;;;;;6199065;28;88358;-67
2022/01/07 15:04:18;;;;;;;1.63;1.52;;;23.30;68.40;;;;;;6184749;28;88000;-67
2022/01/07 15:07:22;;;;;;;2.00;1.80;;;23.30;68.30;;;;;;6183659;28;88955;-68
2022/01/07 15:10:24;;;;;;;1.98;1.70;;;23.30;68.40;;;;;;6187144;28;90001;-67
2022/01/07 15:13:26;;;;;;;2.05;1.70;;;23.30;68.40;;;;;;6220771;28;88053;-67
2022/01/07 15:16:40;;;;;;;1.88;1.67;;;23.30;68.40;;;;;;6209681;28;89060;-67
2022/01/07 15:19:42;;;;;;;2.00;1.80;;;23.30;68.30;;;;;;6207034;28;89417;-67
2022/01/07 15:22:46;;;;;;;2.20;1.95;;;23.40;68.40;;;;;;6197133;28;89140;-67
2022/01/07 15:25:48;;;;;;;1.85;1.75;;;23.30;68.30;;;;;;6211555;28;89161;-67
2022/01/07 15:28:50;;;;;;;2.15;1.95;;;23.30;68.30;;;;;;6191337;28;89272;-67
2022/01/07 15:31:52;;;;;;;1.98;1.77;;;23.30;68.30;;;;;;6214534;28;88951;-67
2022/01/07 15:34:54;;;;;;;2.22;1.85;;;23.30;68.30;;;;;;6228751;28;89351;-68
2022/01/07 15:37:58;;;;;;;1.90;1.80;;;23.30;68.30;;;;;;6189856;28;89167;-66
2022/01/07 15:41:01;;;;;;;1.60;1.50;;;23.30;68.30;;;;;;6208191;28;90200;-67
2022/01/07 15:44:04;;;;;;;1.95;1.80;;;23.30;68.30;;;;;;6219920;28;89211;-68
2022/01/07 15:47:06;;;;;;;1.90;1.70;;;23.30;68.20;;;;;;6195962;28;89387;-67
2022/01/07 15:50:10;;;;;;;1.70;1.60;;;23.30;68.30;;;;;;6220422;28;88331;-68
2022/01/07 15:53:14;;;;;;;2.15;1.80;;;23.30;68.30;;;;;;6221553;28;89174;-67
2022/01/07 15:56:16;;;;;;;1.90;1.70;;;23.30;68.30;;;;;;6227686;28;89343;-67
2022/01/07 15:59:18;;;;;;;1.83;1.70;;;23.30;68.40;;;;;;6224224;28;89142;-67
2022/01/07 16:02:20;;;;;;;2.35;1.83;;;23.30;68.40;;;;;;6205024;28;88627;-67
2022/01/07 16:05:22;;;;;;;1.80;1.70;;;23.30;68.40;;;;;;6232596;28;89068;-67
2022/01/07 16:08:29;;;;;;;1.88;1.75;;;23.20;68.40;;;;;;6205318;28;88961;-67
2022/01/07 16:11:31;;;;;;;1.80;1.70;;;23.20;68.40;;;;;;6207333;28;89795;-67
2022/01/07 16:14:33;;;;;;;1.75;1.65;;;23.10;68.40;;;;;;6187220;28;89051;-67
2022/01/07 16:17:35;;;;;;;2.03;1.83;;;23.20;68.50;;;;;;6196557;28;87954;-67